Time;durP1;ratioP1;P1;durP2;ratioP2;P2;SDS_P1;SDS_P2;PMS_P1;PMS_P2;Temp;Humidity;BMP_temperature;BMP_pressure;BME280_temperature;BME280_humidity;BME280_pressure;Samples;Min_cycle;Max_cycle;Signal;HPM_P1;HPM_P2
2021/06/04 00:00:34;;;;;;;7.93;4.70;;;;;;;13.52;70.58;100361.72;5069609;28;20049;-69
2021/06/04 00:03:10;;;;;;;7.85;4.60;;;;;;;13.31;70.85;100355.78;5054481;28;20049;-69
2021/06/04 00:05:47;;;;;;;8.90;4.55;;;;;;;13.11;71.24;100352.38;5054008;28;20064;-69
2021/06/04 00:08:20;;;;;;;8.60;4.72;;;;;;;12.96;71.95;100359.16;5054099;28;20131;-69
2021/06/04 00:10:55;;;;;;;8.98;4.45;;;;;;;12.93;72.45;100347.22;5054003;28;20052;-69
2021/06/04 00:13:31;;;;;;;6.22;4.38;;;;;;;13.01;72.68;100354.88;5053988;28;20056;-68
2021/06/04 00:16:12;;;;;;;8.30;4.63;;;;;;;13.24;72.39;100354.06;5053864;28;20041;-68
2021/06/04 00:18:43;;;;;;;8.85;5.13;;;;;;;13.21;72.12;100354.06;5053346;28;20399;-68
2021/06/04 00:21:20;;;;;;;9.95;4.72;;;;;;;13.12;72.14;100354.09;5054146;28;20049;-69
2021/06/04 00:23:49;;;;;;;6.95;4.45;;;;;;;13.11;72.16;100352.38;5053831;28;20059;-68
2021/06/04 00:26:22;;;;;;;8.40;4.45;;;;;;;13.04;72.21;100355.75;5053704;28;20103;-68
2021/06/04 00:28:51;;;;;;;8.18;5.20;;;;;;;12.97;72.38;100348.91;5053783;28;20056;-68
2021/06/04 00:31:24;;;;;;;7.60;4.50;;;;;;;12.96;72.65;100354.03;5053652;28;20132;-68
2021/06/04 00:33:54;;;;;;;9.85;4.35;;;;;;;13.03;72.54;100346.34;5052818;28;20301;-68
2021/06/04 00:36:24;;;;;;;5.57;3.72;;;;;;;13.01;72.24;100355.75;5053311;28;20041;-68
2021/06/04 00:38:54;;;;;;;7.93;5.30;;;;;;;13.13;72.20;100357.47;5052226;28;20053;-68
2021/06/04 00:41:30;;;;;;;9.57;5.47;;;;;;;13.21;71.59;100359.19;5053954;28;20053;-69
2021/06/04 00:44:00;;;;;;;8.07;4.90;;;;;;;13.23;71.52;100359.19;5053623;28;20052;-68
2021/06/04 00:46:32;;;;;;;8.80;4.97;;;;;;;13.27;71.28;100364.31;5053501;28;20059;-68
2021/06/04 00:49:02;;;;;;;7.85;4.97;;;;;;;13.28;71.26;100360.91;5053609;28;20080;-68
2021/06/04 00:51:39;;;;;;;7.68;4.95;;;;;;;13.23;71.14;100357.47;5053525;28;20107;-68
2021/06/04 00:54:14;;;;;;;8.00;4.97;;;;;;;13.21;71.28;100369.47;5053540;28;20061;-68
2021/06/04 00:56:47;;;;;;;8.15;4.60;;;;;;;13.25;71.15;100360.91;5053465;28;20090;-68
2021/06/04 00:59:27;;;;;;;9.57;5.53;;;;;;;13.28;71.02;100360.91;5053492;28;20061;-69
2021/06/04 01:02:06;;;;;;;8.85;4.95;;;;;;;13.22;70.81;100360.88;5053278;28;20041;-68
2021/06/04 01:04:37;;;;;;;6.97;4.72;;;;;;;13.15;70.82;100343.81;5068972;28;20094;-68
2021/06/04 01:07:11;;;;;;;8.13;4.40;;;;;;;13.27;71.02;100359.19;5053350;28;20102;-67
2021/06/04 01:10:17;;;;;;;9.70;4.80;;;;;;;13.24;70.65;100354.06;5035730;28;20170;-68
2021/06/04 01:13:13;;;;;;;8.80;5.15;;;;;;;13.16;71.08;100366.03;5031375;28;20041;-68
2021/06/04 01:16:10;;;;;;;8.05;5.05;;;;;;;13.05;71.41;100362.56;5026341;28;20056;-68
2021/06/04 01:18:58;;;;;;;9.45;5.43;;;;;;;13.02;71.35;100362.59;5014623;28;20072;-67
2021/06/04 01:21:39;;;;;;;6.55;4.50;;;;;;;13.03;71.78;100358.31;5031372;28;20058;-68
2021/06/04 01:24:24;;;;;;;7.53;4.90;;;;;;;13.06;71.41;100364.31;5031357;28;20503;-67
2021/06/04 01:27:03;;;;;;;9.55;4.97;;;;;;;12.97;71.69;100364.28;5031306;28;20071;-69
2021/06/04 01:29:41;;;;;;;8.63;5.20;;;;;;;12.97;71.73;100364.28;5033028;28;20077;-68
2021/06/04 01:32:19;;;;;;;7.47;4.63;;;;;;;13.03;71.80;100358.31;5034546;28;20046;-68
2021/06/04 01:34:56;;;;;;;8.55;5.00;;;;;;;12.89;71.49;100350.59;5033905;28;20562;-68
2021/06/04 01:37:31;;;;;;;8.27;4.72;;;;;;;12.78;71.99;100352.31;5034781;28;20061;-68
2021/06/04 01:40:14;;;;;;;8.48;4.97;;;;;;;12.72;72.00;100357.41;5034855;28;20567;-68
2021/06/04 01:42:50;;;;;;;8.70;5.40;;;;;;;12.53;72.41;100366.78;5035824;28;20076;-68
2021/06/04 01:45:32;;;;;;;7.28;5.07;;;;;;;12.41;73.01;100365.88;5056742;28;20080;-68
2021/06/04 01:48:17;;;;;;;7.18;4.90;;;;;;;12.42;73.30;100357.38;5056607;28;20048;-68
2021/06/04 01:51:09;;;;;;;6.32;4.80;;;;;;;12.36;73.41;100354.78;5072349;28;20085;-68
2021/06/04 01:53:51;;;;;;;7.13;5.07;;;;;;;12.19;73.82;100369.25;5056627;28;20433;-68
2021/06/04 01:56:29;;;;;;;8.07;5.10;;;;;;;12.20;74.10;100360.69;5056322;28;20049;-68
2021/06/04 01:59:05;;;;;;;10.25;5.93;;;;;;;12.09;74.08;100353.84;5056420;28;20047;-67
2021/06/04 02:01:42;;;;;;;7.88;5.60;;;;;;;12.00;74.26;100364.03;5056412;28;20069;-68
2021/06/04 02:04:15;;;;;;;7.18;5.25;;;;;;;11.92;74.54;100370.84;5056374;28;20045;-67
2021/06/04 02:06:52;;;;;;;7.93;5.47;;;;;;;11.87;74.92;100372.53;5056317;28;20495;-68
2021/06/04 02:09:28;;;;;;;9.45;5.20;;;;;;;11.99;75.37;100367.47;5056234;28;20083;-68
2021/06/04 02:12:11;;;;;;;8.38;5.40;;;;;;;11.92;75.22;100365.72;5056115;28;20049;-68
2021/06/04 02:14:56;;;;;;;9.07;5.15;;;;;;;11.76;75.37;100379.25;5056426;28;20064;-68
2021/06/04 02:17:45;;;;;;;7.50;5.90;;;;;;;11.82;75.66;100363.97;5071235;28;20060;-68
2021/06/04 02:20:32;;;;;;;9.63;5.55;;;;;;;11.70;75.34;100369.00;5055114;28;20406;-68
2021/06/04 02:23:26;;;;;;;7.90;5.50;;;;;;;11.52;75.70;100373.97;5055957;28;20449;-68
2021/06/04 02:26:05;;;;;;;7.97;5.13;;;;;;;11.54;76.63;100377.38;5055973;28;20140;-68
2021/06/04 02:28:41;;;;;;;9.23;5.05;;;;;;;11.58;76.73;100376.56;5071395;28;20049;-68
2021/06/04 02:31:20;;;;;;;9.77;6.05;;;;;;;11.68;76.63;100375.81;5055577;28;20056;-68
2021/06/04 02:34:20;;;;;;;8.27;5.22;;;;;;;11.67;76.94;100375.75;5054795;28;20053;-67
2021/06/04 02:37:04;;;;;;;10.98;6.30;;;;;;;11.72;76.88;100374.13;5055730;28;20063;-68
2021/06/04 02:39:57;;;;;;;10.07;6.00;;;;;;;11.92;76.45;100375.09;5073628;28;20139;-68
2021/06/04 02:42:37;;;;;;;7.67;5.40;;;;;;;11.75;75.88;100367.34;5073074;28;20044;-67
2021/06/04 02:45:20;;;;;;;8.77;5.97;;;;;;;11.72;76.36;100369.00;5073799;28;20036;-68
2021/06/04 02:47:57;;;;;;;8.77;6.00;;;;;;;11.69;76.36;100371.53;5073435;28;20063;-68
2021/06/04 02:50:37;;;;;;;8.43;5.65;;;;;;;11.65;76.10;100370.66;5073443;28;20056;-68
2021/06/04 02:53:19;;;;;;;8.52;5.93;;;;;;;11.53;76.44;100370.56;5073249;28;20051;-68
2021/06/04 02:56:27;;;;;;;9.52;5.57;;;;;;;11.45;76.86;100378.19;5073325;28;20135;-68
2021/06/04 02:59:06;;;;;;;10.47;5.80;;;;;;;11.46;76.82;100373.94;5069819;28;20051;-68
2021/06/04 03:01:44;;;;;;;13.30;5.82;;;;;;;11.44;76.89;100380.75;5056255;28;20056;-68
2021/06/04 03:04:16;;;;;;;7.90;5.22;;;;;;;11.42;76.96;100379.88;5072972;28;20132;-67
2021/06/04 03:06:57;;;;;;;8.40;5.20;;;;;;;11.33;77.31;100388.31;5073077;28;20044;-68
2021/06/04 03:09:36;;;;;;;7.88;5.20;;;;;;;11.39;77.05;100387.53;5073062;28;20149;-67
2021/06/04 03:12:17;;;;;;;11.48;6.22;;;;;;;11.46;77.09;100384.16;5053811;28;20495;-68
2021/06/04 03:14:52;;;;;;;13.00;6.25;;;;;;;11.59;77.28;100375.72;5055042;28;20079;-68
2021/06/04 03:17:26;;;;;;;12.52;5.90;;;;;;;11.71;77.14;100380.94;5054978;28;20136;-68
2021/06/04 03:20:01;;;;;;;9.73;5.78;;;;;;;11.76;76.80;100383.50;5053742;28;20078;-67
2021/06/04 03:22:36;;;;;;;12.02;5.82;;;;;;;11.72;76.66;100381.78;5054832;28;20081;-68
2021/06/04 03:25:12;;;;;;;9.20;5.70;;;;;;;11.76;76.73;100378.41;5054804;28;20095;-67
2021/06/04 03:27:44;;;;;;;9.32;5.45;;;;;;;12.01;76.79;100386.22;5054753;28;20056;-68
2021/06/04 03:30:27;;;;;;;5.82;3.58;;;;;;;12.26;76.37;100382.03;5053823;28;20063;-68
2021/06/04 03:32:58;;;;;;;13.63;5.78;;;;;;;12.13;75.73;100323.16;5054513;28;20052;-68
2021/06/04 03:35:33;;;;;;;7.38;5.10;;;;;;;12.64;74.86;100385.56;5054607;28;20045;-68
2021/06/04 03:38:07;;;;;;;7.70;4.70;;;;;;;12.62;73.94;100376.22;5054567;28;20139;-68
2021/06/04 03:40:41;;;;;;;11.18;5.00;;;;;;;12.72;73.83;100393.28;5054518;28;20536;-68
2021/06/04 03:43:17;;;;;;;8.82;5.32;;;;;;;12.82;73.41;100395.00;5054400;28;20052;-68
2021/06/04 03:45:52;;;;;;;10.15;5.93;;;;;;;12.86;72.97;100395.88;5053033;28;20052;-68
2021/06/04 03:48:30;;;;;;;8.15;5.07;;;;;;;12.87;73.17;100393.31;5054399;28;20095;-68
2021/06/04 03:51:07;;;;;;;10.43;5.85;;;;;;;12.98;72.76;100391.59;5054339;28;20060;-68
2021/06/04 03:53:40;;;;;;;13.13;5.60;;;;;;;12.96;72.66;100398.44;5053234;28;20053;-68
2021/06/04 03:56:14;;;;;;;10.57;5.70;;;;;;;12.93;72.67;100398.47;5054036;28;20053;-68
2021/06/04 03:58:46;;;;;;;12.38;6.43;;;;;;;12.93;72.84;100403.59;5054450;28;20486;-68
2021/06/04 04:01:25;;;;;;;9.68;6.00;;;;;;;13.12;73.16;100400.22;5054216;28;20410;-69
2021/06/04 04:03:58;;;;;;;9.35;5.72;;;;;;;13.23;72.71;100398.50;5054100;28;20048;-69
2021/06/04 04:06:32;;;;;;;9.15;5.40;;;;;;;13.32;72.79;100406.19;5054059;28;20087;-69
2021/06/04 04:09:06;;;;;;;10.02;5.72;;;;;;;13.57;72.48;100403.59;5054034;28;20056;-69
2021/06/04 04:11:38;;;;;;;7.38;5.10;;;;;;;13.81;71.87;100403.56;5054031;28;20049;-69
2021/06/04 04:14:08;;;;;;;10.77;5.85;;;;;;;13.97;71.11;100406.09;5053727;28;20049;-68
2021/06/04 04:16:40;;;;;;;9.00;5.82;;;;;;;14.12;70.82;100410.31;5053897;28;20491;-69
2021/06/04 04:19:09;;;;;;;10.18;6.32;;;;;;;14.21;70.13;100402.56;5053934;28;20060;-69
2021/06/04 04:21:45;;;;;;;8.95;5.18;;;;;;;14.39;69.53;100399.97;5053856;28;20060;-69
2021/06/04 04:24:16;;;;;;;6.78;5.07;;;;;;;14.45;68.57;100401.66;5053795;28;20055;-69
2021/06/04 04:26:49;;;;;;;9.77;5.35;;;;;;;14.63;68.55;100402.44;5053814;28;20059;-68
2021/06/04 04:29:18;;;;;;;7.05;4.90;;;;;;;14.76;67.87;100401.47;5053785;28;20056;-69
2021/06/04 04:31:55;;;;;;;8.93;5.32;;;;;;;14.89;67.14;100396.25;5052482;28;20505;-69
2021/06/04 04:34:26;;;;;;;8.02;4.88;;;;;;;15.01;67.21;100402.19;5051421;28;20061;-68
2021/06/04 04:37:01;;;;;;;9.95;5.65;;;;;;;15.22;66.38;100406.28;5053805;28;20124;-69
2021/06/04 04:39:33;;;;;;;8.38;4.90;;;;;;;15.38;65.81;100402.72;5053654;28;20049;-69
2021/06/04 04:42:09;;;;;;;9.02;5.47;;;;;;;15.49;65.57;100392.38;5053954;28;20091;-69
2021/06/04 04:44:42;;;;;;;9.27;4.88;;;;;;;15.79;65.49;100400.66;5053620;28;20060;-69
2021/06/04 04:47:17;;;;;;;8.68;5.50;;;;;;;16.11;64.85;100402.88;5053918;28;20057;-70
2021/06/04 04:49:50;;;;;;;10.90;4.80;;;;;;;16.30;64.26;100395.78;5053603;28;20060;-69
2021/06/04 04:52:23;;;;;;;8.60;4.70;;;;;;;16.44;63.96;100402.47;5053550;28;20045;-70
2021/06/04 04:54:58;;;;;;;6.70;4.63;;;;;;;16.52;63.13;100398.09;5053267;28;20045;-70
2021/06/04 04:57:30;;;;;;;8.63;4.80;;;;;;;16.65;63.45;100399.63;5053214;28;20080;-70
2021/06/04 05:00:04;;;;;;;6.78;4.60;;;;;;;16.83;62.78;100400.25;5053466;28;20076;-69
2021/06/04 05:02:36;;;;;;;6.57;4.80;;;;;;;16.87;62.09;100405.31;5053516;28;20056;-69
2021/06/04 05:05:09;;;;;;;8.93;4.60;;;;;;;16.86;61.61;100401.06;5056072;28;20056;-69
2021/06/04 05:07:46;;;;;;;7.03;4.70;;;;;;;16.91;61.28;100404.44;5057287;28;20056;-69
2021/06/04 05:10:18;;;;;;;7.65;4.70;;;;;;;16.90;61.25;100400.13;5057327;28;20064;-70
2021/06/04 05:12:51;;;;;;;8.57;4.90;;;;;;;17.02;61.37;100407.69;5057292;28;20048;-69
2021/06/04 05:15:29;;;;;;;7.43;5.13;;;;;;;17.22;60.68;100415.97;5057237;28;20084;-70
2021/06/04 05:18:01;;;;;;;8.20;4.80;;;;;;;17.35;60.28;100412.31;5057147;28;20052;-70
2021/06/04 05:20:33;;;;;;;7.20;4.53;;;;;;;17.51;59.76;100415.50;5057138;28;20143;-69
2021/06/04 05:23:07;;;;;;;7.20;4.60;;;;;;;17.62;59.27;100410.16;5057118;28;20049;-70
2021/06/04 05:25:42;;;;;;;8.43;5.00;;;;;;;17.80;58.84;100415.03;5057111;28;20140;-70
2021/06/04 05:28:19;;;;;;;7.20;4.57;;;;;;;17.92;58.65;100409.63;5056744;28;20053;-70
2021/06/04 05:30:54;;;;;;;12.68;6.30;;;;;;;18.04;58.69;100410.22;5056923;28;20061;-70
2021/06/04 05:33:33;;;;;;;7.63;4.70;;;;;;;18.18;58.19;100414.28;5055834;28;20455;-70
2021/06/04 05:36:08;;;;;;;10.65;4.70;;;;;;;18.29;57.60;100413.19;5056899;28;20132;-70
2021/06/04 05:38:41;;;;;;;8.82;4.60;;;;;;;18.36;57.27;100417.34;5056813;28;20059;-71
2021/06/04 05:41:15;;;;;;;11.10;4.72;;;;;;;18.45;57.40;100411.97;5056720;28;20053;-70
2021/06/04 05:43:48;;;;;;;7.22;4.57;;;;;;;18.49;57.21;100413.66;5056432;28;20049;-70
2021/06/04 05:46:21;;;;;;;9.73;5.30;;;;;;;18.53;56.93;100409.25;5057031;28;20044;-71
2021/06/04 05:48:56;;;;;;;9.10;4.40;;;;;;;18.60;56.90;100416.84;5056593;28;20490;-70
2021/06/04 05:51:30;;;;;;;7.88;4.47;;;;;;;18.72;56.81;100416.59;5056586;28;20096;-70
2021/06/04 05:54:04;;;;;;;7.05;4.30;;;;;;;18.86;56.48;100418.03;5056489;28;20398;-70
2021/06/04 05:56:34;;;;;;;7.25;4.80;;;;;;;18.94;56.57;100421.28;5056547;28;20049;-69
2021/06/04 05:59:06;;;;;;;6.93;4.07;;;;;;;19.09;56.66;100420.94;5056383;28;20499;-71
2021/06/04 06:01:38;;;;;;;7.60;4.25;;;;;;;19.19;56.16;100420.69;5056473;28;20445;-70
2021/06/04 06:04:10;;;;;;;6.97;4.78;;;;;;;19.16;55.73;100410.41;5056289;28;20521;-70
2021/06/04 06:06:42;;;;;;;8.88;4.70;;;;;;;19.23;55.49;100424.91;5056345;28;20060;-70
2021/06/04 06:09:16;;;;;;;6.57;4.28;;;;;;;19.37;55.62;100422.00;5056190;28;20376;-71
2021/06/04 06:11:48;;;;;;;6.10;4.22;;;;;;;19.43;55.34;100414.09;5056196;28;20087;-70
2021/06/04 06:14:20;;;;;;;8.68;4.60;;;;;;;19.61;55.11;100430.88;5056128;28;20059;-71
2021/06/04 06:16:50;;;;;;;7.15;4.53;;;;;;;19.69;54.78;100428.97;5055031;28;20490;-70
2021/06/04 06:19:22;;;;;;;5.60;4.28;;;;;;;19.71;54.66;100428.03;5055995;28;20037;-70
2021/06/04 06:21:54;;;;;;;8.13;4.63;;;;;;;19.68;54.87;100428.09;5055857;28;20056;-71
2021/06/04 06:24:25;;;;;;;7.38;4.53;;;;;;;19.79;54.96;100415.75;5056164;28;20056;-70
2021/06/04 06:26:58;;;;;;;6.00;4.38;;;;;;;20.02;54.50;100428.91;5055883;28;20067;-70
2021/06/04 06:29:29;;;;;;;7.10;4.10;;;;;;;20.20;54.36;100421.53;5055655;28;20176;-70
2021/06/04 06:32:03;;;;;;;5.35;4.30;;;;;;;20.25;54.18;100430.06;5054620;28;20087;-71
2021/06/04 06:34:33;;;;;;;9.13;4.40;;;;;;;20.33;53.95;100434.13;5055261;28;20061;-71
2021/06/04 06:37:06;;;;;;;6.28;4.43;;;;;;;20.41;54.00;100427.00;5055808;28;20088;-70
2021/06/04 06:39:40;;;;;;;14.60;5.35;;;;;;;20.66;54.26;100427.09;5055655;28;20057;-70
2021/06/04 06:42:09;;;;;;;11.07;5.10;;;;;;;20.90;53.95;100428.94;5055605;28;20041;-70
2021/06/04 06:44:38;;;;;;;7.05;4.82;;;;;;;21.06;53.41;100429.38;5055480;28;20051;-71
2021/06/04 06:47:07;;;;;;;8.35;4.53;;;;;;;21.12;52.60;100431.75;5055443;28;20060;-71
2021/06/04 06:49:40;;;;;;;11.43;4.85;;;;;;;21.26;52.61;100432.16;5055501;28;20128;-72
2021/06/04 06:52:09;;;;;;;11.07;4.35;;;;;;;21.43;52.45;100426.44;5055064;28;20052;-71
2021/06/04 06:54:43;;;;;;;;;;;;;;;21.56;52.10;100427.72;5055759;28;20041;-70
2021/06/04 06:57:12;;;;;;;7.85;3.83;;;;;;;21.43;52.36;100426.44;5054942;28;19920;-71
2021/06/04 06:59:40;;;;;;;6.32;3.70;;;;;;;21.66;52.36;100429.97;5055171;28;20041;-70
2021/06/04 07:02:14;;;;;;;9.13;4.63;;;;;;;21.88;52.24;100424.91;5055371;28;20041;-70
2021/06/04 07:04:43;;;;;;;9.25;4.88;;;;;;;21.99;51.76;100425.38;5055151;28;20071;-70
2021/06/04 07:07:12;;;;;;;7.70;4.55;;;;;;;22.20;51.19;100427.19;5055232;28;20048;-71
2021/06/04 07:09:43;;;;;;;8.38;4.10;;;;;;;22.36;50.68;100425.72;5055119;28;20051;-71
2021/06/04 07:12:13;;;;;;;5.90;3.70;;;;;;;22.48;49.42;100414.88;5055045;28;20052;-70
2021/06/04 07:14:44;;;;;;;;;;;;;;;22.53;48.97;100410.34;5055017;28;20053;-70
2021/06/04 07:17:13;;;;;;;7.38;3.78;;;;;;;22.34;49.42;100414.53;5054869;28;19928;-70
2021/06/04 07:19:42;;;;;;;6.93;4.07;;;;;;;22.45;49.43;100415.00;5054808;28;20056;-70
2021/06/04 07:22:14;;;;;;;;;;;;;;;22.58;48.76;100421.44;5055209;28;20565;-70
2021/06/04 07:24:48;;;;;;;7.22;4.00;;;;;;;22.57;48.60;100417.16;5054769;28;19932;-71
2021/06/04 07:27:18;;;;;;;7.53;3.90;;;;;;;22.59;48.59;100409.28;5054613;28;20495;-69
2021/06/04 07:29:50;;;;;;;6.13;4.40;;;;;;;22.46;49.24;100414.06;5054742;28;20103;-70
2021/06/04 07:32:19;;;;;;;6.28;3.90;;;;;;;22.56;49.36;100417.19;5055008;28;20083;-70
2021/06/04 07:34:48;;;;;;;6.85;4.07;;;;;;;22.79;48.69;100411.16;5052868;28;20141;-68
2021/06/04 07:37:21;;;;;;;5.93;3.67;;;;;;;22.95;47.94;100417.44;5054463;28;20045;-71
2021/06/04 07:39:52;;;;;;;5.82;3.92;;;;;;;23.03;48.18;100418.00;5054408;28;20049;-71
2021/06/04 07:42:22;;;;;;;5.70;3.92;;;;;;;22.73;47.67;100416.56;5054454;28;20084;-71
2021/06/04 07:44:51;;;;;;;6.07;4.25;;;;;;;22.46;48.39;100408.03;5054605;28;20051;-71
2021/06/04 07:47:23;;;;;;;;;;;;;;;22.74;48.52;100413.94;5054784;28;20064;-71
2021/06/04 07:49:55;;;;;;;7.78;4.13;;;;;;;23.12;48.29;100422.81;5054280;28;19920;-72
2021/06/04 07:52:28;;;;;;;6.35;4.05;;;;;;;23.43;47.42;100415.50;5054274;28;20060;-72
2021/06/04 07:54:59;;;;;;;7.85;3.97;;;;;;;23.35;47.27;100422.75;5054062;28;20041;-71
2021/06/04 07:57:28;;;;;;;8.57;4.20;;;;;;;23.58;47.28;100421.81;5053864;28;20061;-70
2021/06/04 08:00:00;;;;;;;8.30;4.07;;;;;;;23.59;46.64;100426.97;5054154;28;20495;-70
2021/06/04 08:02:39;;;;;;;6.18;4.30;;;;;;;23.43;46.60;100420.69;5053978;28;20498;-70
2021/06/04 08:05:13;;;;;;;7.65;4.25;;;;;;;23.53;47.12;100422.00;5054191;28;20111;-69
2021/06/04 08:07:43;;;;;;;5.82;4.15;;;;;;;23.39;47.40;100418.28;5069346;28;20115;-70
2021/06/04 08:10:16;;;;;;;6.88;4.25;;;;;;;23.73;47.26;100416.78;5053941;28;20048;-70
2021/06/04 08:12:52;;;;;;;7.80;3.92;;;;;;;24.05;47.07;100424.97;5053954;28;20406;-71
2021/06/04 08:15:28;;;;;;;5.97;3.83;;;;;;;24.18;46.22;100415.75;5053613;28;20080;-70
2021/06/04 08:17:58;;;;;;;6.15;3.88;;;;;;;24.12;45.47;100416.00;5053573;28;20416;-71
2021/06/04 08:20:33;;;;;;;6.07;3.67;;;;;;;23.99;46.10;100421.72;5053858;28;20064;-71
2021/06/04 08:23:06;;;;;;;5.03;3.45;;;;;;;24.16;46.60;100422.78;5053670;28;20045;-72
2021/06/04 08:25:40;;;;;;;6.95;4.18;;;;;;;24.33;46.13;100409.84;5053749;28;20051;-70
2021/06/04 08:28:14;;;;;;;7.53;3.92;;;;;;;24.42;46.34;100412.88;5053593;28;20061;-70
2021/06/04 08:30:45;;;;;;;6.00;3.65;;;;;;;24.37;45.62;100414.00;5053635;28;20057;-70
2021/06/04 08:33:19;;;;;;;6.07;3.90;;;;;;;24.39;46.24;100410.41;5052855;28;20057;-72
2021/06/04 08:35:49;;;;;;;5.40;3.40;;;;;;;24.63;46.43;100413.63;5053327;28;20083;-70
2021/06/04 08:38:18;;;;;;;5.20;3.35;;;;;;;24.71;45.69;100416.75;5053169;28;20491;-69
2021/06/04 08:40:48;;;;;;;5.43;3.50;;;;;;;24.73;45.13;100414.06;5053754;28;20055;-70
2021/06/04 08:43:39;;;;;;;5.28;3.35;;;;;;;24.45;44.91;100404.06;5053611;28;20383;-70
2021/06/04 08:46:11;;;;;;;;;;;;;;;24.43;44.99;100411.09;5053968;28;20053;-69
2021/06/04 08:48:48;;;;;;;5.30;3.55;;;;;;;24.61;45.21;100405.03;5053435;28;19921;-70
2021/06/04 08:51:28;;;;;;;6.55;3.38;;;;;;;24.88;45.05;100403.78;5052626;28;20103;-69
2021/06/04 08:54:19;;;;;;;5.20;3.65;;;;;;;24.98;45.57;100399.78;5053365;28;20123;-70
2021/06/04 08:56:57;;;;;;;5.82;3.78;;;;;;;24.93;44.97;100400.94;5053366;28;20561;-70
2021/06/04 08:59:29;;;;;;;6.35;3.50;;;;;;;24.72;45.78;100404.50;5053160;28;20064;-70
2021/06/04 09:02:00;;;;;;;5.85;3.63;;;;;;;24.89;45.60;100405.44;5051968;28;20059;-70
2021/06/04 09:04:32;;;;;;;7.18;3.70;;;;;;;25.14;45.18;100410.34;5053161;28;20053;-70
2021/06/04 09:07:10;;;;;;;5.22;3.50;;;;;;;25.17;44.81;100407.59;5053353;28;20060;-69
2021/06/04 09:09:44;;;;;;;7.53;3.67;;;;;;;25.30;45.55;100409.53;5053429;28;20053;-69
2021/06/04 09:12:22;;;;;;;4.85;3.70;;;;;;;25.22;44.82;100409.03;5052787;28;20434;-70
2021/06/04 09:14:53;;;;;;;4.75;3.25;;;;;;;25.32;44.40;100404.22;5068415;28;20052;-70
2021/06/04 09:17:35;;;;;;;5.22;3.42;;;;;;;25.36;44.59;100405.75;5053301;28;20432;-70
2021/06/04 09:20:12;;;;;;;5.15;3.30;;;;;;;25.57;45.11;100403.88;5053270;28;20457;-70
2021/06/04 09:22:44;;;;;;;4.22;3.13;;;;;;;25.79;45.16;100399.22;5053249;28;20536;-70
2021/06/04 09:25:17;;;;;;;7.32;4.32;;;;;;;26.01;44.55;100393.72;5053292;28;20490;-70
2021/06/04 09:27:50;;;;;;;6.25;3.78;;;;;;;26.17;43.55;100395.47;5053429;28;20053;-69
2021/06/04 09:30:25;;;;;;;6.45;3.85;;;;;;;26.11;42.97;100385.31;5068459;28;20041;-70
2021/06/04 09:33:06;;;;;;;6.95;3.80;;;;;;;26.37;42.81;100392.63;5052995;28;20063;-71
2021/06/04 09:35:36;;;;;;;5.13;3.40;;;;;;;26.02;42.40;100336.06;5051386;28;20049;-72
2021/06/04 09:38:12;;;;;;;5.22;3.40;;;;;;;26.36;42.85;100384.84;5053097;28;20092;-70
2021/06/04 09:40:42;;;;;;;5.13;3.20;;;;;;;26.52;42.60;100385.69;5052942;28;20520;-70
2021/06/04 09:43:22;;;;;;;4.75;3.13;;;;;;;26.80;41.77;100385.06;5052975;28;20057;-70
2021/06/04 09:46:00;;;;;;;7.18;3.38;;;;;;;26.94;42.48;100382.50;5053108;28;20498;-70
2021/06/04 09:48:41;;;;;;;5.97;3.42;;;;;;;26.55;41.54;100370.69;5053287;28;20091;-71
2021/06/04 09:51:24;;;;;;;5.68;3.42;;;;;;;26.11;42.49;100374.00;5054236;28;20056;-69
2021/06/04 09:53:55;;;;;;;5.03;3.22;;;;;;;25.93;42.80;100376.66;5056536;28;20463;-69
2021/06/04 09:56:30;;;;;;;5.38;3.10;;;;;;;25.93;42.65;100373.19;5056311;28;20127;-71
2021/06/04 09:59:11;;;;;;;6.10;3.00;;;;;;;25.84;42.11;100371.88;5056774;28;20052;-69
2021/06/04 10:01:48;;;;;;;5.22;3.10;;;;;;;25.80;42.33;100369.50;5056371;28;20143;-71
2021/06/04 10:04:27;;;;;;;7.97;3.42;;;;;;;26.18;42.69;100370.97;5056378;28;20356;-69
2021/06/04 10:07:05;;;;;;;5.45;3.25;;;;;;;26.28;41.85;100366.09;5056353;28;20072;-70
2021/06/04 10:09:39;;;;;;;5.68;3.33;;;;;;;26.22;42.47;100367.28;5056195;28;20060;-70
2021/06/04 10:12:17;;;;;;;5.00;3.25;;;;;;;26.63;42.19;100365.84;5055876;28;20055;-70
2021/06/04 10:14:53;;;;;;;4.50;3.20;;;;;;;27.04;42.05;100362.72;5055856;28;20098;-69
2021/06/04 10:17:40;;;;;;;6.43;3.30;;;;;;;27.12;41.98;100356.06;5055856;28;20099;-70
2021/06/04 10:20:30;;;;;;;5.03;3.60;;;;;;;27.10;40.79;100357.09;5055888;28;20544;-71
2021/06/04 10:23:24;;;;;;;7.18;3.55;;;;;;;26.91;41.07;100353.84;5055932;28;20057;-71
2021/06/04 10:25:59;;;;;;;5.28;3.25;;;;;;;27.06;39.98;100360.84;5052752;28;20052;-70
2021/06/04 10:28:41;;;;;;;5.10;3.08;;;;;;;27.07;40.55;100357.28;5055857;28;20453;-70
2021/06/04 10:31:36;;;;;;;5.43;3.30;;;;;;;27.31;40.83;100355.03;5056059;28;20411;-68
2021/06/04 10:34:19;;;;;;;5.38;3.20;;;;;;;27.43;40.36;100360.41;5054970;28;20057;-71
2021/06/04 10:36:55;;;;;;;5.00;3.42;;;;;;;27.37;39.94;100352.88;5055776;28;20087;-70
2021/06/04 10:39:35;;;;;;;5.65;3.80;;;;;;;27.21;39.58;100354.72;5055715;28;20490;-72
2021/06/04 10:42:18;;;;;;;4.65;3.33;;;;;;;27.36;38.67;100348.56;5055467;28;20517;-72
2021/06/04 10:44:54;;;;;;;5.28;3.38;;;;;;;27.18;39.01;100360.13;5054538;28;20057;-70
2021/06/04 10:47:41;;;;;;;5.90;3.45;;;;;;;27.05;39.23;100348.66;5056166;28;20171;-72
2021/06/04 10:50:18;;;;;;;5.10;3.35;;;;;;;27.06;39.01;100345.13;5055473;28;20071;-69
2021/06/04 10:53:05;;;;;;;5.82;3.20;;;;;;;27.04;38.29;100337.31;5055443;28;20049;-70
2021/06/04 10:55:41;;;;;;;4.63;3.17;;;;;;;27.01;38.76;100340.16;5013661;28;20053;-71
2021/06/04 10:58:20;;;;;;;5.70;3.38;;;;;;;27.12;38.69;100339.50;5013457;28;20057;-70
2021/06/04 11:00:57;;;;;;;6.65;3.90;;;;;;;27.43;39.11;100331.56;5013493;28;20064;-69
2021/06/04 11:03:35;;;;;;;6.43;3.22;;;;;;;27.57;39.48;100326.31;5013024;28;20057;-71
2021/06/04 11:06:13;;;;;;;4.93;3.45;;;;;;;27.63;38.47;100331.22;4996949;28;20045;-70
2021/06/04 11:08:57;;;;;;;5.78;3.10;;;;;;;27.54;37.95;100326.53;5013371;28;20058;-68
2021/06/04 11:11:49;;;;;;;3.95;2.92;;;;;;;27.40;38.86;100330.91;5013358;28;20550;-71
2021/06/04 11:14:49;;;;;;;5.28;3.78;;;;;;;27.47;38.89;100335.69;5013280;28;20069;-70
2021/06/04 11:17:37;;;;;;;6.47;3.47;;;;;;;27.42;38.51;100316.78;5012936;28;20050;-69
2021/06/04 11:20:15;;;;;;;6.82;3.40;;;;;;;27.53;38.92;100323.97;5012934;28;20073;-71
2021/06/04 11:22:51;;;;;;;5.45;3.50;;;;;;;27.44;38.30;100320.13;4996881;28;20061;-66
2021/06/04 11:25:45;;;;;;;4.30;3.00;;;;;;;27.40;38.85;100312.53;5013130;28;20057;-71
2021/06/04 11:28:31;;;;;;;4.65;3.08;;;;;;;27.55;37.79;100311.59;5054613;28;20048;-71
2021/06/04 11:31:08;;;;;;;6.20;3.05;;;;;;;27.90;37.90;100308.53;5054733;28;20490;-71
2021/06/04 11:33:40;;;;;;;4.82;3.30;;;;;;;28.20;37.19;100310.19;5053684;28;20499;-71
2021/06/04 11:36:18;;;;;;;5.38;3.25;;;;;;;28.10;37.03;100311.72;5054429;28;20055;-70
2021/06/04 11:38:52;;;;;;;4.95;3.03;;;;;;;27.93;36.90;100303.06;5054895;28;20410;-72
2021/06/04 11:41:29;;;;;;;5.82;3.25;;;;;;;28.09;36.96;100296.91;5054487;28;20063;-64
2021/06/04 11:44:07;;;;;;;4.95;3.10;;;;;;;27.90;36.08;100297.19;5054531;28;20045;-66
2021/06/04 11:46:40;;;;;;;4.40;2.72;;;;;;;27.81;37.22;100298.59;5054383;28;20406;-70
2021/06/04 11:49:11;;;;;;;5.25;3.03;;;;;;;27.90;36.63;100298.03;5054380;28;20052;-70
2021/06/04 11:51:50;;;;;;;5.47;3.20;;;;;;;27.60;36.27;100284.16;5054347;28;20052;-70
2021/06/04 11:54:36;;;;;;;6.30;3.15;;;;;;;27.82;37.29;100284.53;5054279;28;20494;-69
2021/06/04 11:57:45;;;;;;;5.78;3.10;;;;;;;28.21;37.76;100280.38;5053581;28;20057;-70
2021/06/04 12:00:35;;;;;;;5.25;3.00;;;;;;;28.19;36.21;100282.25;5053913;28;20048;-68
2021/06/04 12:03:29;;;;;;;4.40;3.08;;;;;;;28.45;35.73;100279.66;5054148;28;20049;-70
2021/06/04 12:06:19;;;;;;;5.63;3.13;;;;;;;28.50;36.06;100255.72;5052886;28;20063;-69
2021/06/04 12:08:54;;;;;;;5.45;2.95;;;;;;;28.66;35.87;100280.06;5053850;28;20049;-71